Le Mars, IA

1:23 AM CDT on September 18, 2019 (GMT -0500)
Le Mars Municipal

Weather History for KLRJ - July, 2019

Change the Weather History Date:

Thursday, July 25, 2019

  Actual Average Record
Temperature  
Mean Temperature 70 °F -  
Max Temperature 77 °F 87 °F 98 °F (2012)
Min Temperature 64 °F 62 °F 46 °F (2004)
Cooling Degree Days 6    
Growing Degree Days 20 (Base 50)    
Moisture  
Dew Point 63 °F    
Average Humidity 79    
Maximum Humidity 94    
Minimum Humidity 61    
Precipitation  
Precipitation 0.04 in - - ()
Sea Level Pressure  
Sea Level Pressure 30.03 in    
Wind  
Wind Speed 12 mph (SSE)    
Max Wind Speed 28 mph    
Max Gust Speed 36 mph    
Visibility 10 miles    
Events Rain    
Averages and records for this station are not official NWS values.
T = Trace of Precipitation, MM = Missing Value Source: NWS Daily Summary

Daily Weather History Graph

Daily Weather History Graph

Search for Another Location

Airport or City:

Astronomy

Jul. 25, 2019 Rise Set
Actual Time 6:08 AM CDT 8:53 PM CDT
Civil Twilight 5:36 AM CDT 9:25 PM CDT
Nautical Twilight 4:54 AM CDT 10:07 PM CDT
Astronomical Twilight 4:06 AM CDT 10:54 PM CDT
Moon 12:58 AM CDT (7/25) 2:32 PM CDT (7/25)
Length of Visible Light 15h 49m
Length of Day
14h 44m
Last Quarter, 44% of the Moon is Illuminated
Jul 25
Last Quarter
Jul 31
New
Aug 7
First Quarter
Aug 15
Full
Aug 23
Last Quarter

Hourly Weather History & Observations

Time (CDT) Temp. Dew Point Humidity Pressure Visibility Wind Dir Wind Speed Gust Speed Precip Events Conditions
12:15 AM 66.2 °F 59.0 °F 78% 30.09 in 10.0 mi SSW 6.9 mph - N/A   Mostly Cloudy
12:35 AM 66.2 °F 60.8 °F 83% 30.09 in 10.0 mi SSE 6.9 mph - N/A   Overcast
12:55 AM 64.4 °F 60.8 °F 88% 30.08 in 10.0 mi SSE 8.1 mph - N/A   Mostly Cloudy
1:15 AM 64.4 °F 59.0 °F 83% 30.07 in 10.0 mi SSE 9.2 mph - N/A   Mostly Cloudy
1:35 AM 66.2 °F 59.0 °F 78% 30.07 in 10.0 mi South 8.1 mph - N/A   Mostly Cloudy
1:55 AM 64.4 °F 59.0 °F 83% 30.06 in 10.0 mi South 6.9 mph - N/A   Overcast
2:15 AM 64.4 °F 59.0 °F 83% 30.06 in 10.0 mi South 8.1 mph - N/A   Mostly Cloudy
2:35 AM 64.4 °F 59.0 °F 83% 30.06 in 10.0 mi South 8.1 mph - N/A   Overcast
2:55 AM 64.4 °F 59.0 °F 83% 30.06 in 10.0 mi South 8.1 mph - N/A   Overcast
3:15 AM 64.4 °F 59.0 °F 83% 30.06 in 10.0 mi South 6.9 mph - N/A   Mostly Cloudy
3:35 AM 64.4 °F 59.0 °F 83% 30.06 in 10.0 mi South 6.9 mph - N/A   Scattered Clouds
3:55 AM 66.2 °F 59.0 °F 78% 30.05 in 10.0 mi SSE 9.2 mph - N/A   Mostly Cloudy
4:15 AM 66.2 °F 59.0 °F 78% 30.05 in 10.0 mi SSE 5.8 mph - N/A   Mostly Cloudy
4:35 AM 66.2 °F 59.0 °F 78% 30.05 in 10.0 mi South 8.1 mph - N/A   Overcast
4:55 AM 66.2 °F 59.0 °F 78% 30.04 in 10.0 mi South 8.1 mph - N/A   Overcast
5:15 AM 66.2 °F 59.0 °F 78% 30.05 in 10.0 mi SSE 9.2 mph - N/A   Overcast
5:35 AM 66.2 °F 59.0 °F 78% 30.06 in 10.0 mi SSE 9.2 mph - N/A   Overcast
5:55 AM 66.2 °F 59.0 °F 78% 30.06 in 10.0 mi SSE 10.4 mph - N/A   Overcast
6:15 AM 66.2 °F 59.0 °F 78% 30.05 in 10.0 mi SSE 10.4 mph - N/A   Overcast
6:35 AM 66.2 °F 59.0 °F 78% 30.05 in 10.0 mi South 9.2 mph - N/A   Mostly Cloudy
6:55 AM 68.0 °F 59.0 °F 73% 30.05 in 10.0 mi South 11.5 mph - N/A   Mostly Cloudy
7:15 AM 68.0 °F 59.0 °F 73% 30.06 in 10.0 mi South 11.5 mph - N/A   Partly Cloudy
7:35 AM 68.0 °F 59.0 °F 73% 30.05 in 10.0 mi SSE 12.7 mph - N/A   Clear
7:55 AM 68.0 °F 60.8 °F 78% 30.05 in 10.0 mi South 11.5 mph - N/A   Mostly Cloudy
8:15 AM 68.0 °F 60.8 °F 78% 30.06 in 10.0 mi South 11.5 mph - N/A   Mostly Cloudy
8:35 AM 68.0 °F 60.8 °F 78% 30.06 in 10.0 mi South 10.4 mph - N/A   Overcast
8:55 AM 69.8 °F 60.8 °F 73% 30.06 in 10.0 mi South 16.1 mph - N/A   Overcast
9:15 AM 69.8 °F 60.8 °F 73% 30.06 in 10.0 mi South 16.1 mph 24.2 mph N/A   Overcast
9:35 AM 69.8 °F 60.8 °F 73% 30.06 in - South 18.4 mph 24.2 mph N/A   Overcast
9:55 AM 68.0 °F 62.6 °F 83% 30.06 in 9.0 mi South 15.0 mph - N/A   Scattered Clouds
10:15 AM 66.2 °F 64.4 °F 94% 30.07 in 6.0 mi South 11.5 mph - N/A Rain Light Rain
10:35 AM 66.2 °F 64.4 °F 94% 30.07 in 7.0 mi SSE 13.8 mph - N/A Rain Light Rain
10:55 AM 66.2 °F 64.4 °F 94% 30.06 in 10.0 mi SSE 16.1 mph - 0.03 in   Overcast
11:15 AM 66.2 °F 64.4 °F 94% 30.06 in 9.0 mi SE 12.7 mph 20.7 mph N/A   Overcast
11:35 AM 66.2 °F 64.4 °F 94% 30.06 in 10.0 mi SSE 11.5 mph - N/A   Overcast
11:55 AM 68.0 °F 64.4 °F 88% 30.05 in 10.0 mi SSE 15.0 mph - 0.01 in   Overcast
12:15 PM 68.0 °F 64.4 °F 88% 30.04 in 10.0 mi SSE 15.0 mph - N/A   Mostly Cloudy
12:35 PM 69.8 °F 64.4 °F 83% 30.04 in 10.0 mi SSE 17.3 mph - N/A   Scattered Clouds
12:55 PM 71.6 °F 66.2 °F 83% 30.03 in 10.0 mi SSE 16.1 mph 23.0 mph N/A   Partly Cloudy
1:15 PM 71.6 °F 66.2 °F 83% 30.04 in 10.0 mi South 13.8 mph 19.6 mph N/A   Partly Cloudy
1:35 PM 71.6 °F 66.2 °F 83% 30.03 in 10.0 mi SSE 17.3 mph 23.0 mph N/A   Scattered Clouds
1:55 PM 73.4 °F 66.2 °F 78% 30.02 in 10.0 mi South 17.3 mph - N/A   Scattered Clouds
2:15 PM 75.2 °F 66.2 °F 73% 30.01 in 10.0 mi South 20.7 mph 29.9 mph N/A   Scattered Clouds
2:35 PM 73.4 °F 64.4 °F 73% 30.00 in 10.0 mi South 25.3 mph 31.1 mph N/A   Mostly Cloudy
2:55 PM 75.2 °F 64.4 °F 69% 30.00 in 10.0 mi South 23.0 mph 31.1 mph N/A   Mostly Cloudy
3:15 PM 75.2 °F 64.4 °F 69% 30.00 in 10.0 mi South 25.3 mph 32.2 mph N/A   Scattered Clouds
3:35 PM 77.0 °F 64.4 °F 65% 30.00 in 10.0 mi South 19.6 mph 26.5 mph N/A   Partly Cloudy
3:55 PM 77.0 °F 62.6 °F 61% 29.99 in 10.0 mi South 27.6 mph 35.7 mph N/A   Scattered Clouds
4:15 PM 77.0 °F 62.6 °F 61% 29.98 in 10.0 mi South 23.0 mph 32.2 mph N/A   Clear
4:35 PM 77.0 °F 62.6 °F 61% 29.97 in 10.0 mi South 27.6 mph 33.4 mph N/A   Clear
4:55 PM 77.0 °F 64.4 °F 65% 29.97 in 10.0 mi South 23.0 mph 28.8 mph N/A   Clear
5:15 PM 77.0 °F 64.4 °F 65% 29.98 in 10.0 mi South 19.6 mph 29.9 mph N/A   Partly Cloudy
5:35 PM 77.0 °F 64.4 °F 65% 29.98 in 10.0 mi South 19.6 mph 29.9 mph N/A   Scattered Clouds
5:55 PM 75.2 °F 66.2 °F 73% 29.98 in 10.0 mi South 20.7 mph 27.6 mph N/A   Scattered Clouds
6:15 PM 77.0 °F 66.2 °F 69% 29.98 in 10.0 mi South 16.1 mph 24.2 mph N/A   Clear
6:35 PM 77.0 °F 66.2 °F 69% 29.99 in 10.0 mi South 17.3 mph - N/A   Clear
6:55 PM 75.2 °F 66.2 °F 73% 29.99 in 10.0 mi South 17.3 mph 25.3 mph N/A   Clear
7:15 PM 75.2 °F 66.2 °F 73% 29.99 in 10.0 mi SSE 13.8 mph 20.7 mph N/A   Scattered Clouds
7:35 PM 75.2 °F 66.2 °F 73% 29.99 in 10.0 mi SSE 15.0 mph 21.9 mph N/A   Mostly Cloudy
7:55 PM 75.2 °F 66.2 °F 73% 30.00 in 10.0 mi SSE 13.8 mph 20.7 mph N/A   Scattered Clouds
8:15 PM 73.4 °F 66.2 °F 78% 29.99 in 10.0 mi SSE 11.5 mph - N/A   Clear
8:35 PM 73.4 °F 66.2 °F 78% 29.99 in 10.0 mi SSE 10.4 mph - N/A   Clear
8:55 PM 71.6 °F 66.2 °F 83% 29.99 in 10.0 mi SSE 15.0 mph - N/A   Clear
9:15 PM 71.6 °F 66.2 °F 83% 30.00 in 10.0 mi SSE 10.4 mph 17.3 mph N/A   Clear
9:35 PM 71.6 °F 66.2 °F 83% 30.00 in 10.0 mi SSE 11.5 mph - N/A   Clear
9:55 PM 69.8 °F 66.2 °F 88% 30.00 in 10.0 mi SSE 12.7 mph - N/A   Clear
10:15 PM 69.8 °F 66.2 °F 88% 29.99 in 10.0 mi SSE 12.7 mph - N/A   Clear
10:35 PM 69.8 °F 66.2 °F 88% 30.00 in 10.0 mi SSE 13.8 mph - N/A   Clear
10:55 PM 69.8 °F 66.2 °F 88% 30.00 in 10.0 mi SSE 11.5 mph - N/A   Clear
11:15 PM 68.0 °F 66.2 °F 94% 30.00 in 10.0 mi SSE 11.5 mph - N/A   Clear
11:35 PM 68.0 °F 64.4 °F 88% 30.01 in 10.0 mi SSE 10.4 mph - N/A   Clear
11:55 PM 68.0 °F 64.4 °F 88% 30.00 in 10.0 mi South 11.5 mph - N/A   Clear